Pagrindinis puslapis
METAR-TAF:

METAR-TAF

Oro uostai :

Childress, Teksasas, Jungtinės Amerikos Valstijos

platuma: 34-25-39N, ilguma: 100-17-00W, Aukštis: 595 m

Dabartinis oras

Ataskaita buvo paskelbta 1 valandą ir 11 minutes, ne 02:53 UTC
Vėjas 12 kt iš Pietų/Pietryčių
Temperatūra 17°C
Drėgmė 59%
Slėgis 1023 hPa
Matomumas: 16.1 km
Giedras dangus

METAR: KCDS 140253Z AUTO 15012KT 10SM CLR 17/09 A3020 RMK AO2 SLP213 T01720089 53007

Laikas: 23:04 (04:04 UTC)

Prognozė

Ataskaita buvo paskelbta 4 valandos ir 33 minutes, ne 23:31 UTC
Prognozė galioja nuo 14 metu 00 UTC su 14 metu 24 UTC
Vėjas 10 kt iš Pietų
Matomumas: 10 km
Giedras dangus

TAF: KCDS 132331Z 1400/1424 17010KT P6SM SKC

Orai ataskaitas ir orų prognozės (METAR, TAF).

turimą stotys yra geltonos ir raudonos taškus žemėlapyje.

Perkelti pele per norėdami pamatyti stoties vardą.

Tada spustelėkite, norėdami matyti oro stebėjimo ir prognozės.

Norėdami pakeisti žemėlapį: spustelėkite ant žalios mygtukų su juodo kryžiaus žemyn,; žalią mygtuką su brūkšneliu, jei norite nutolinti; arba žalių rodyklių gretimoms žemėlapius.


METAR-TAF: